Terminal Aerodrome Forecast
Issued by NWS

Home | Current Version | Previous Version | Text Only | Print | Product List | Glossary On
Versions: 1 2 3 4 5 6 7 8 9 10 11 12 13 14 15 16 17 18 19 20 21 22 23 24 25 26
792
FTUS46 KEKA 192322
TAFUKI
TAF
KUKI 192322Z 2000/2024 VRB04KT P6SM VCSH SCT008 BKN035 BKN060
     FM200500 15012G20KT 4SM -RA BR SCT008 OVC015
     FM201400 16008G16KT 4SM -RA BR SCT008 OVC015
      TEMPO 2015/2018 2SM -RA BR=

USA.gov is the U.S. government's official web portal to all federal, state and local government web resources and services.